createdAt,value
2022-09-28T00:01:35.478Z,0.80
2022-09-28T00:04:05.884Z,0.70
2022-09-28T00:06:32.489Z,0.70
2022-09-28T00:08:59.181Z,0.80
2022-09-28T00:11:28.298Z,0.50
2022-09-28T00:14:00.178Z,0.70
2022-09-28T00:16:28.691Z,0.70
2022-09-28T00:18:55.819Z,1.00
2022-09-28T00:21:26.897Z,0.60
2022-09-28T00:24:14.728Z,0.70
2022-09-28T00:26:41.300Z,0.70
2022-09-28T00:29:12.930Z,0.87
2022-09-28T00:31:40.580Z,0.90
2022-09-28T00:34:07.095Z,0.63
2022-09-28T00:36:35.874Z,0.80
2022-09-28T00:39:06.747Z,0.73
2022-09-28T00:41:33.825Z,0.50
2022-09-28T00:44:20.821Z,0.83
2022-09-28T00:46:53.766Z,0.70
2022-09-28T00:49:22.731Z,0.70
2022-09-28T00:51:49.370Z,0.67
2022-09-28T00:54:16.952Z,0.50
2022-09-28T00:56:45.702Z,0.83
2022-09-28T00:59:12.386Z,0.90
2022-09-28T01:01:38.955Z,0.60
2022-09-28T01:04:10.949Z,0.70
2022-09-28T01:06:38.422Z,0.70
2022-09-28T01:09:07.786Z,0.40
2022-09-28T01:11:36.430Z,0.80
2022-09-28T01:14:05.595Z,0.70
2022-09-28T01:16:41.953Z,0.70
2022-09-28T01:19:46.486Z,0.60
2022-09-28T01:22:19.076Z,0.57
2022-09-28T01:24:46.527Z,0.80
2022-09-28T01:27:38.275Z,0.50
2022-09-28T01:30:04.953Z,0.80
2022-09-28T01:32:37.781Z,0.70
2022-09-28T01:35:05.370Z,0.80
2022-09-28T01:37:36.420Z,0.80
2022-09-28T01:40:04.785Z,0.90
2022-09-28T01:42:33.894Z,0.63
2022-09-28T01:45:05.963Z,0.80
2022-09-28T01:47:36.142Z,1.07
2022-09-28T01:50:07.207Z,0.60
2022-09-28T01:52:45.988Z,0.83
2022-09-28T01:55:17.083Z,1.13
2022-09-28T01:57:51.694Z,0.70
2022-09-28T02:00:19.214Z,0.90
2022-09-28T02:02:57.764Z,0.80
2022-09-28T02:05:36.674Z,0.93
2022-09-28T02:08:10.516Z,1.00
2022-09-28T02:10:42.555Z,0.90
2022-09-28T02:13:15.328Z,0.80
2022-09-28T02:15:47.068Z,1.13
2022-09-28T02:18:14.136Z,1.10
2022-09-28T02:20:42.404Z,1.00
2022-09-28T02:23:09.774Z,1.00
2022-09-28T02:25:49.887Z,1.17
2022-09-28T02:28:18.661Z,1.53
2022-09-28T02:30:45.201Z,1.33
2022-09-28T02:33:54.311Z,1.47
2022-09-28T02:36:22.084Z,1.40
2022-09-28T02:38:48.702Z,1.60
2022-09-28T02:41:18.420Z,1.63
2022-09-28T02:44:03.792Z,1.50
2022-09-28T02:46:45.093Z,2.23
2022-09-28T02:49:39.654Z,1.40
2022-09-28T02:52:25.751Z,1.80
2022-09-28T02:55:24.988Z,1.50
2022-09-28T02:58:11.357Z,2.00
2022-09-28T03:00:43.654Z,1.97
2022-09-28T03:03:13.792Z,2.20
2022-09-28T03:05:41.199Z,2.30
2022-09-28T03:08:15.828Z,2.17
2022-09-28T03:10:48.845Z,2.10
2022-09-28T03:13:17.241Z,2.30
2022-09-28T03:15:48.564Z,2.30
2022-09-28T03:18:17.078Z,2.70
2022-09-28T03:20:43.652Z,2.93
2022-09-28T03:23:26.634Z,2.73
2022-09-28T03:25:53.812Z,2.70
2022-09-28T03:28:21.393Z,2.50
2022-09-28T03:30:48.375Z,3.10
2022-09-28T03:33:15.486Z,3.40
2022-09-28T03:35:42.352Z,3.20
2022-09-28T03:38:09.522Z,3.37
2022-09-28T03:40:39.696Z,3.10
2022-09-28T03:43:06.324Z,3.60
2022-09-28T03:45:32.919Z,3.47
2022-09-28T03:48:00.974Z,3.60
2022-09-28T03:50:27.684Z,3.60
2022-09-28T03:52:54.393Z,4.13
2022-09-28T03:55:20.872Z,3.70
2022-09-28T03:57:53.099Z,4.03
2022-09-28T04:00:19.723Z,3.73
2022-09-28T04:02:46.798Z,4.00
2022-09-28T04:05:13.559Z,3.90
2022-09-28T04:07:40.335Z,3.80
2022-09-28T04:10:08.750Z,3.60
2022-09-28T04:12:35.244Z,3.57
2022-09-28T04:15:02.243Z,3.83
2022-09-28T04:17:28.801Z,3.50
2022-09-28T04:19:55.804Z,4.03
2022-09-28T04:22:38.459Z,3.80
2022-09-28T04:25:05.301Z,3.63
2022-09-28T04:27:50.642Z,3.60
2022-09-28T04:30:17.349Z,3.70
2022-09-28T04:32:48.220Z,3.90
2022-09-28T04:35:16.584Z,4.10
2022-09-28T04:37:43.141Z,4.50
2022-09-28T04:40:09.953Z,4.03
2022-09-28T04:42:37.505Z,4.17
2022-09-28T04:45:04.942Z,4.07
2022-09-28T04:47:33.846Z,3.93
2022-09-28T04:50:20.966Z,4.13
2022-09-28T04:53:15.401Z,4.17
2022-09-28T04:55:42.837Z,4.20
2022-09-28T04:58:09.382Z,4.20
2022-09-28T05:00:36.864Z,3.97
2022-09-28T05:03:10.046Z,4.13
2022-09-28T05:05:56.586Z,4.33
2022-09-28T05:08:39.468Z,4.30
2022-09-28T05:11:07.374Z,4.03
2022-09-28T05:13:41.017Z,3.87
2022-09-28T05:16:08.025Z,4.07
2022-09-28T05:18:54.155Z,4.03
2022-09-28T05:21:20.776Z,3.80
2022-09-28T05:23:47.751Z,3.60
2022-09-28T05:26:14.838Z,4.03
2022-09-28T05:28:41.651Z,3.93
2022-09-28T05:31:30.879Z,3.43
2022-09-28T05:34:14.617Z,3.50
2022-09-28T05:36:42.799Z,3.83
2022-09-28T05:39:09.718Z,3.57
2022-09-28T05:41:37.253Z,3.73
2022-09-28T05:44:04.994Z,3.53
2022-09-28T05:46:31.859Z,3.73
2022-09-28T05:49:00.388Z,3.90
2022-09-28T05:51:29.596Z,3.20
2022-09-28T05:53:57.509Z,3.40
2022-09-28T05:56:26.764Z,4.10
2022-09-28T05:58:53.905Z,3.20
2022-09-28T06:01:22.997Z,3.17
2022-09-28T06:03:51.536Z,2.90
2022-09-28T06:06:19.230Z,3.30
2022-09-28T06:08:48.527Z,3.50
2022-09-28T06:11:31.984Z,3.30
2022-09-28T06:14:06.053Z,3.10
2022-09-28T06:16:38.242Z,3.10
2022-09-28T06:19:09.777Z,3.63
2022-09-28T06:21:54.988Z,3.50
2022-09-28T06:24:21.567Z,3.23
2022-09-28T06:26:48.142Z,3.17
2022-09-28T06:29:20.678Z,3.30
2022-09-28T06:31:47.373Z,2.67
2022-09-28T06:34:17.403Z,3.17
2022-09-28T06:36:45.581Z,3.00
2022-09-28T06:39:12.253Z,3.20
2022-09-28T06:41:40.302Z,3.00
2022-09-28T06:44:15.844Z,2.63
2022-09-28T06:47:01.378Z,2.87
2022-09-28T06:49:48.746Z,2.67
2022-09-28T06:52:27.429Z,3.00
2022-09-28T06:55:08.588Z,2.93
2022-09-28T06:57:43.371Z,2.77
2022-09-28T07:00:10.891Z,2.60
2022-09-28T07:02:38.376Z,2.60
2022-09-28T07:05:37.527Z,2.93
2022-09-28T07:08:36.096Z,2.70
2022-09-28T07:11:21.383Z,2.40
2022-09-28T07:14:00.703Z,2.50
2022-09-28T07:16:54.275Z,2.50
2022-09-28T07:19:16.791Z,2.83
2022-09-28T07:21:47.292Z,2.73
2022-09-28T07:24:17.601Z,2.27
2022-09-28T07:27:20.275Z,2.70
2022-09-28T07:30:05.763Z,2.60
2022-09-28T07:32:41.909Z,2.40
2022-09-28T07:35:20.591Z,2.77
2022-09-28T07:37:58.439Z,2.33
2022-09-28T07:40:48.195Z,2.70
2022-09-28T07:43:21.559Z,3.40
2022-09-28T07:45:55.013Z,2.77
2022-09-28T07:48:22.567Z,2.90
2022-09-28T07:51:00.284Z,2.33
2022-09-28T07:53:49.086Z,2.60
2022-09-28T07:56:35.657Z,2.77
2022-09-28T07:59:09.095Z,2.13
2022-09-28T08:01:38.665Z,2.17
2022-09-28T08:04:06.263Z,1.83
2022-09-28T08:06:35.660Z,2.30
2022-09-28T08:09:04.001Z,2.60
2022-09-28T08:11:50.375Z,2.67
2022-09-28T08:14:34.731Z,2.67
2022-09-28T08:17:22.425Z,2.00
2022-09-28T08:20:12.159Z,2.23
2022-09-28T08:22:39.210Z,2.30
2022-09-28T08:25:06.180Z,2.23
2022-09-28T08:27:33.390Z,2.13
2022-09-28T08:30:00.041Z,2.07
2022-09-28T08:32:49.406Z,2.23
2022-09-28T08:35:34.467Z,2.27
2022-09-28T08:38:17.678Z,2.10
2022-09-28T08:41:23.586Z,1.90
2022-09-28T08:44:24.171Z,1.90
2022-09-28T08:47:07.913Z,1.80
2022-09-28T08:49:47.381Z,1.97
2022-09-28T08:52:38.198Z,1.90
2022-09-28T08:55:23.979Z,2.33
2022-09-28T08:58:16.945Z,1.63
2022-09-28T09:00:48.769Z,1.37
2022-09-28T09:03:28.138Z,1.40
2022-09-28T09:06:38.428Z,1.10
2022-09-28T09:09:30.896Z,1.50
2022-09-28T09:12:21.594Z,1.17
2022-09-28T09:15:07.984Z,1.07
2022-09-28T09:17:43.823Z,1.03
2022-09-28T09:20:41.699Z,1.10
2022-09-28T09:23:32.102Z,1.10
2022-09-28T09:26:04.038Z,1.17
2022-09-28T09:28:47.974Z,1.20
2022-09-28T09:31:17.689Z,1.30
2022-09-28T09:33:59.433Z,0.90
2022-09-28T09:36:44.164Z,1.30
2022-09-28T09:39:37.618Z,1.50
2022-09-28T09:42:46.900Z,1.53
2022-09-28T09:45:41.024Z,1.00
2022-09-28T09:48:33.939Z,1.20
2022-09-28T09:51:04.720Z,1.10
2022-09-28T09:53:38.439Z,0.87
2022-09-28T09:56:15.165Z,1.10
2022-09-28T09:59:01.879Z,1.00
2022-09-28T10:01:39.027Z,0.83
2022-09-28T10:04:22.672Z,0.87
2022-09-28T10:06:53.937Z,0.80
2022-09-28T10:09:23.569Z,0.80
2022-09-28T10:11:51.961Z,1.43
2022-09-28T10:14:24.006Z,1.30
2022-09-28T10:17:01.392Z,0.90
2022-09-28T10:19:55.062Z,0.97
2022-09-28T10:23:03.226Z,1.00
2022-09-28T10:25:33.292Z,1.00
2022-09-28T10:28:01.149Z,0.93
2022-09-28T10:30:28.542Z,0.80
2022-09-28T10:32:59.593Z,1.10
2022-09-28T10:35:40.116Z,1.17
2022-09-28T10:38:17.915Z,1.00
2022-09-28T10:40:50.835Z,1.10
2022-09-28T10:43:33.662Z,1.30
2022-09-28T10:46:06.633Z,1.10
2022-09-28T10:48:46.074Z,0.90
2022-09-28T10:51:12.690Z,1.10
2022-09-28T10:53:40.945Z,0.83
2022-09-28T10:56:19.717Z,0.80
2022-09-28T10:58:48.088Z,0.90
2022-09-28T11:01:27.031Z,1.00
2022-09-28T11:03:58.567Z,0.80
2022-09-28T11:06:47.786Z,0.90
2022-09-28T11:09:29.846Z,0.70
2022-09-28T11:12:06.049Z,0.80
2022-09-28T11:14:38.407Z,0.90
2022-09-28T11:17:30.715Z,0.70
2022-09-28T11:19:59.557Z,0.90
2022-09-28T11:22:32.340Z,1.00
2022-09-28T11:25:20.354Z,1.00
2022-09-28T11:27:53.895Z,0.90
2022-09-28T11:30:45.203Z,1.00
2022-09-28T11:33:38.418Z,0.80
2022-09-28T11:36:32.823Z,0.97
2022-09-28T11:39:02.683Z,0.90
2022-09-28T11:41:39.297Z,0.70
2022-09-28T11:44:09.568Z,0.80
2022-09-28T11:46:50.641Z,0.70
2022-09-28T11:49:20.918Z,0.60
2022-09-28T11:51:50.341Z,0.80
2022-09-28T11:54:34.078Z,0.90
2022-09-28T11:57:03.499Z,0.40
2022-09-28T11:59:32.475Z,0.73
2022-09-28T12:02:04.089Z,0.67
2022-09-28T12:04:48.950Z,0.80
2022-09-28T12:07:23.284Z,0.60
2022-09-28T12:09:53.971Z,0.67
2022-09-28T12:12:38.778Z,1.10
2022-09-28T12:15:18.597Z,0.87
2022-09-28T12:17:58.183Z,3.30
2022-09-28T12:20:25.050Z,1.00
2022-09-28T12:23:01.842Z,0.90
2022-09-28T12:25:31.585Z,0.77
2022-09-28T12:28:01.272Z,0.77
2022-09-28T12:30:31.164Z,0.60
2022-09-28T12:33:18.754Z,0.97
2022-09-28T12:36:06.944Z,0.80
2022-09-28T12:39:08.437Z,0.60
2022-09-28T12:41:44.903Z,0.80
2022-09-28T12:44:21.237Z,0.90
2022-09-28T12:46:53.706Z,0.67
2022-09-28T12:52:21.791Z,1.03
2022-09-28T12:55:07.594Z,2.00
2022-09-28T12:57:37.348Z,0.83
2022-09-28T13:00:04.349Z,1.20
2022-09-28T13:02:51.375Z,0.90
2022-09-28T13:05:28.246Z,0.90
2022-09-28T13:08:03.708Z,0.90
2022-09-28T13:10:33.871Z,1.00
2022-09-28T13:13:08.861Z,1.33
2022-09-28T13:15:51.707Z,1.00
2022-09-28T13:18:22.978Z,0.70
2022-09-28T13:21:08.537Z,0.80
2022-09-28T13:23:37.989Z,1.00
2022-09-28T13:26:06.595Z,0.93
2022-09-28T13:28:33.996Z,0.80
2022-09-28T13:31:02.994Z,1.03
2022-09-28T13:33:33.698Z,0.87
2022-09-28T13:36:00.267Z,0.50
2022-09-28T13:38:32.000Z,0.90
2022-09-28T13:41:05.074Z,0.60
2022-09-28T13:43:34.623Z,0.70
2022-09-28T13:46:09.387Z,0.90
2022-09-28T13:48:48.810Z,0.80
2022-09-28T13:51:23.816Z,0.80
2022-09-28T13:54:00.036Z,1.00
2022-09-28T13:56:36.988Z,0.70
2022-09-28T13:59:24.090Z,0.73
2022-09-28T14:01:55.907Z,0.73
2022-09-28T14:04:23.766Z,1.27
2022-09-28T14:06:52.428Z,0.90
2022-09-28T14:09:25.137Z,0.70
2022-09-28T14:12:02.238Z,0.60
2022-09-28T14:14:31.097Z,0.60
2022-09-28T14:17:20.942Z,0.93
2022-09-28T14:19:53.231Z,0.77
2022-09-28T14:22:34.905Z,0.70
2022-09-28T14:25:13.756Z,0.70
2022-09-28T14:27:50.880Z,0.70
2022-09-28T14:30:21.354Z,0.60
2022-09-28T14:32:53.646Z,0.80
2022-09-28T14:35:25.406Z,0.87
2022-09-28T14:38:14.979Z,1.00
2022-09-28T14:41:15.390Z,1.00
2022-09-28T14:43:45.661Z,1.20
2022-09-28T14:46:23.215Z,1.30
2022-09-28T14:48:53.253Z,1.30
2022-09-28T14:51:36.233Z,1.10
2022-09-28T14:54:04.516Z,1.10
2022-09-28T14:56:40.046Z,1.07
2022-09-28T14:59:10.051Z,1.20
2022-09-28T15:01:37.167Z,1.17
2022-09-28T15:04:07.325Z,1.00
2022-09-28T15:06:47.734Z,0.90
2022-09-28T15:09:34.670Z,1.03
2022-09-28T15:12:01.510Z,0.70
2022-09-28T15:14:31.871Z,0.73
2022-09-28T15:17:02.946Z,0.77
2022-09-28T15:19:35.306Z,0.80
2022-09-28T15:22:02.882Z,0.90
2022-09-28T15:24:33.897Z,0.90
2022-09-28T15:27:01.857Z,1.10
2022-09-28T15:29:32.095Z,0.93
2022-09-28T15:31:59.269Z,0.70
2022-09-28T15:34:51.810Z,0.67
2022-09-28T15:37:22.077Z,0.90
2022-09-28T15:39:52.509Z,1.10
2022-09-28T15:42:19.375Z,1.00
2022-09-28T15:45:25.402Z,1.07
2022-09-28T15:47:58.379Z,0.83
2022-09-28T15:50:29.263Z,0.90
2022-09-28T15:53:03.298Z,0.60
2022-09-28T15:55:35.128Z,1.00
2022-09-28T15:58:18.375Z,0.97
2022-09-28T16:00:46.526Z,1.07
2022-09-28T16:03:29.350Z,1.03
2022-09-28T16:05:59.284Z,1.63
2022-09-28T16:08:42.209Z,1.10
2022-09-28T16:11:18.061Z,1.10
2022-09-28T16:13:52.049Z,1.30
2022-09-28T16:16:22.038Z,1.33
2022-09-28T16:18:48.962Z,1.77
2022-09-28T16:21:28.955Z,1.03
2022-09-28T16:23:56.195Z,1.10
2022-09-28T16:26:34.197Z,1.40
2022-09-28T16:29:05.950Z,1.40
2022-09-28T16:31:34.333Z,1.77
2022-09-28T16:34:11.563Z,1.47
2022-09-28T16:36:41.110Z,1.50
2022-09-28T16:39:09.374Z,1.40
2022-09-28T16:41:39.832Z,1.40
2022-09-28T16:44:12.579Z,1.93
2022-09-28T16:46:39.485Z,1.50
2022-09-28T16:49:06.916Z,1.67
2022-09-28T16:51:33.954Z,2.17
2022-09-28T16:54:30.244Z,2.03
2022-09-28T16:56:57.403Z,1.30
2022-09-28T16:59:25.206Z,1.80
2022-09-28T17:01:53.146Z,2.17
2022-09-28T17:04:19.787Z,1.10
2022-09-28T17:06:46.354Z,1.27
2022-09-28T17:09:19.263Z,1.40
2022-09-28T17:11:46.040Z,1.37
2022-09-28T17:14:13.108Z,1.70
2022-09-28T17:17:06.534Z,1.20
2022-09-28T17:19:30.918Z,1.20
2022-09-28T17:21:58.894Z,1.40
2022-09-28T17:24:25.542Z,1.50
2022-09-28T17:26:54.884Z,1.70
2022-09-28T17:29:22.005Z,1.40
2022-09-28T17:31:48.774Z,1.10
2022-09-28T17:34:16.149Z,1.10
2022-09-28T17:36:44.068Z,0.97
2022-09-28T17:39:15.110Z,1.43
2022-09-28T17:41:41.853Z,1.20
2022-09-28T17:44:08.401Z,1.63
2022-09-28T17:46:46.190Z,1.20
2022-09-28T17:49:30.269Z,1.90
2022-09-28T17:51:56.911Z,1.93
2022-09-28T17:54:25.952Z,1.50
2022-09-28T17:56:54.061Z,1.10
2022-09-28T17:59:20.793Z,1.10
2022-09-28T18:01:51.267Z,1.30
2022-09-28T18:04:46.917Z,1.43
2022-09-28T18:07:06.485Z,1.40
2022-09-28T18:09:33.330Z,1.50
2022-09-28T18:12:01.100Z,2.13
2022-09-28T18:14:28.573Z,2.30
2022-09-28T18:16:56.947Z,2.10
2022-09-28T18:19:23.539Z,3.40
2022-09-28T18:21:50.302Z,2.37
2022-09-28T18:24:25.209Z,2.60
2022-09-28T18:26:52.014Z,3.33
2022-09-28T18:29:21.279Z,2.33
2022-09-28T18:31:49.135Z,2.17
2022-09-28T18:34:15.827Z,2.10
2022-09-28T18:36:45.511Z,2.30
2022-09-28T18:39:12.902Z,2.10
2022-09-28T18:41:45.031Z,1.87
2022-09-28T18:44:11.689Z,2.53
2022-09-28T18:46:44.538Z,2.50
2022-09-28T18:49:11.253Z,2.30
2022-09-28T18:51:40.119Z,2.77
2022-09-28T18:54:13.151Z,2.37
2022-09-28T18:56:40.977Z,9.90
2022-09-28T18:59:12.377Z,7.33
2022-09-28T19:01:42.785Z,8.87
2022-09-28T19:04:10.521Z,2.30
2022-09-28T19:06:40.815Z,7.30
2022-09-28T19:09:14.422Z,4.37
2022-09-28T19:11:41.553Z,4.90
2022-09-28T19:14:11.252Z,5.37
2022-09-28T19:16:37.987Z,3.07
2022-09-28T19:19:06.655Z,2.73
2022-09-28T19:21:34.107Z,2.70
2022-09-28T19:24:01.613Z,3.20
2022-09-28T19:26:29.116Z,3.40
2022-09-28T19:28:56.794Z,4.07
2022-09-28T19:31:25.565Z,3.63
2022-09-28T19:33:52.425Z,3.00
2022-09-28T19:36:22.133Z,3.20
2022-09-28T19:38:49.348Z,2.83
2022-09-28T19:41:39.328Z,2.87
2022-09-28T19:44:11.190Z,7.17
2022-09-28T19:46:38.861Z,2.93
2022-09-28T19:49:13.405Z,3.60
2022-09-28T19:52:01.624Z,3.23
2022-09-28T19:57:24.979Z,3.17
2022-09-28T19:59:53.735Z,3.80
2022-09-28T20:02:22.223Z,3.53
2022-09-28T20:04:49.119Z,3.60
2022-09-28T20:07:19.144Z,3.60
2022-09-28T20:09:45.803Z,3.50
2022-09-28T20:12:12.382Z,4.37
2022-09-28T20:14:40.467Z,3.20
2022-09-28T20:17:07.507Z,3.40
2022-09-28T20:19:35.102Z,3.13
2022-09-28T20:22:02.975Z,2.60
2022-09-28T20:24:30.121Z,3.23
2022-09-28T20:26:56.800Z,3.10
2022-09-28T20:29:25.082Z,3.17
2022-09-28T20:31:52.038Z,3.23
2022-09-28T20:34:18.807Z,3.00
2022-09-28T20:36:45.353Z,3.27
2022-09-28T20:39:12.099Z,4.20
2022-09-28T20:41:38.827Z,3.10
2022-09-28T20:44:15.101Z,7.67
2022-09-28T20:46:44.381Z,3.47
2022-09-28T20:49:12.464Z,4.30
2022-09-28T20:51:39.464Z,3.97
2022-09-28T20:54:06.264Z,4.07
2022-09-28T20:56:38.996Z,4.00
2022-09-28T20:59:10.463Z,2.90
2022-09-28T21:01:38.788Z,3.63
2022-09-28T21:04:06.707Z,3.60
2022-09-28T21:06:34.766Z,2.87
2022-09-28T21:09:02.789Z,3.33
2022-09-28T21:11:29.751Z,3.40
2022-09-28T21:14:00.649Z,3.03
2022-09-28T21:16:29.077Z,3.10
2022-09-28T21:18:56.004Z,3.30
2022-09-28T21:21:23.524Z,3.00
2022-09-28T21:23:54.115Z,3.03
2022-09-28T21:26:27.358Z,2.90
2022-09-28T21:28:55.921Z,2.83
2022-09-28T21:31:28.490Z,2.90
2022-09-28T21:33:57.008Z,2.53
2022-09-28T21:36:24.184Z,2.80
2022-09-28T21:38:51.045Z,2.80
2022-09-28T21:41:17.900Z,2.20
2022-09-28T21:43:45.569Z,2.80
2022-09-28T21:46:12.290Z,2.57
2022-09-28T21:48:39.777Z,3.00
2022-09-28T21:51:07.584Z,2.60
2022-09-28T21:53:35.364Z,4.00
2022-09-28T21:56:03.754Z,3.10
2022-09-28T21:58:31.664Z,2.67
2022-09-28T22:01:01.452Z,2.90
2022-09-28T22:03:28.747Z,3.10
2022-09-28T22:05:55.507Z,2.80
2022-09-28T22:08:23.939Z,2.73
2022-09-28T22:11:00.953Z,2.80
2022-09-28T22:13:32.114Z,2.80
2022-09-28T22:16:00.716Z,3.43
2022-09-28T22:18:29.217Z,3.10
2022-09-28T22:21:03.525Z,3.80
2022-09-28T22:23:36.954Z,3.50
2022-09-28T22:26:13.865Z,3.03
2022-09-28T22:28:45.451Z,3.50
2022-09-28T22:31:12.137Z,3.53
2022-09-28T22:33:40.173Z,3.07
2022-09-28T22:36:07.964Z,3.07
2022-09-28T22:38:35.521Z,2.80
2022-09-28T22:41:05.230Z,3.17
2022-09-28T22:43:32.166Z,3.50
2022-09-28T22:46:06.486Z,2.90
2022-09-28T22:48:34.167Z,2.50
2022-09-28T22:51:01.301Z,2.83
2022-09-28T22:53:31.268Z,2.63
2022-09-28T22:55:59.275Z,2.73
2022-09-28T22:58:26.280Z,2.73
2022-09-28T23:00:53.371Z,2.20
2022-09-28T23:03:21.225Z,2.73
2022-09-28T23:05:55.046Z,2.30
2022-09-28T23:08:22.139Z,2.37
2022-09-28T23:10:48.992Z,2.37
2022-09-28T23:13:15.705Z,2.00
2022-09-28T23:15:42.461Z,2.23
2022-09-28T23:18:09.504Z,2.40
2022-09-28T23:20:36.596Z,2.20
2022-09-28T23:23:03.448Z,2.07
2022-09-28T23:25:30.262Z,2.10
2022-09-28T23:27:56.939Z,2.40
2022-09-28T23:30:24.939Z,1.83
2022-09-28T23:32:52.143Z,2.00
2022-09-28T23:35:18.812Z,2.10
2022-09-28T23:37:50.178Z,2.20
2022-09-28T23:40:23.843Z,2.10
2022-09-28T23:42:51.205Z,2.00
2022-09-28T23:45:17.851Z,2.23
2022-09-28T23:47:44.537Z,2.40
2022-09-28T23:50:12.245Z,2.10
2022-09-28T23:52:38.924Z,2.00
2022-09-28T23:55:05.788Z,2.00
2022-09-28T23:57:33.386Z,2.10
